createdAt,value
2019-03-06T00:01:25.163Z,1.33
2019-03-06T00:06:26.732Z,1.67
2019-03-06T00:11:28.277Z,1.80
2019-03-06T00:16:29.830Z,1.90
2019-03-06T00:21:31.401Z,1.73
2019-03-06T00:26:33.060Z,1.93
2019-03-06T00:31:34.754Z,1.70
2019-03-06T00:36:36.453Z,2.40
2019-03-06T00:41:43.472Z,2.30
2019-03-06T00:46:45.151Z,1.90
2019-03-06T00:51:46.722Z,2.40
2019-03-06T00:56:48.285Z,2.03
2019-03-06T01:01:50.172Z,2.23
2019-03-06T01:06:52.216Z,2.23
2019-03-06T01:11:53.789Z,2.07
2019-03-06T01:16:55.360Z,2.23
2019-03-06T01:21:56.957Z,2.60
2019-03-06T01:26:58.531Z,2.50
2019-03-06T01:32:00.239Z,2.37
2019-03-06T01:37:21.594Z,2.13
2019-03-06T01:42:45.517Z,2.27
2019-03-06T01:47:47.136Z,2.23
2019-03-06T01:52:48.809Z,2.47
2019-03-06T01:57:50.361Z,2.50
2019-03-06T02:02:52.014Z,2.40
2019-03-06T02:07:53.664Z,2.53
2019-03-06T02:12:55.349Z,2.97
2019-03-06T02:17:56.914Z,2.57
2019-03-06T02:22:58.597Z,3.00
2019-03-06T02:28:00.560Z,2.80
2019-03-06T02:33:02.220Z,2.53
2019-03-06T02:38:03.903Z,2.83
2019-03-06T02:43:05.570Z,2.80
2019-03-06T02:48:07.241Z,2.83
2019-03-06T02:53:08.858Z,2.87
2019-03-06T02:58:20.706Z,2.93
2019-03-06T03:03:47.930Z,3.07
2019-03-06T03:08:49.687Z,2.83
2019-03-06T03:13:51.233Z,2.73
2019-03-06T03:18:52.910Z,2.60
2019-03-06T03:23:54.463Z,2.57
2019-03-06T03:28:56.088Z,3.57
2019-03-06T03:33:57.747Z,4.13
2019-03-06T03:38:59.304Z,4.03
2019-03-06T03:44:00.939Z,4.17
2019-03-06T03:49:02.498Z,3.97
2019-03-06T03:54:04.543Z,4.00
2019-03-06T03:59:06.211Z,4.70
2019-03-06T04:04:07.879Z,5.00
2019-03-06T04:09:09.608Z,5.33
2019-03-06T04:14:11.186Z,4.77
2019-03-06T04:19:12.750Z,7.47
2019-03-06T04:24:14.308Z,6.70
2019-03-06T04:29:16.090Z,6.23
2019-03-06T04:34:17.842Z,5.93
2019-03-06T04:39:19.463Z,6.43
2019-03-06T04:44:21.016Z,6.13
2019-03-06T04:49:22.571Z,6.43
2019-03-06T04:54:24.124Z,6.43
2019-03-06T04:59:25.675Z,5.90
2019-03-06T05:04:27.222Z,8.27
2019-03-06T05:09:28.759Z,6.33
2019-03-06T05:14:30.745Z,6.90
2019-03-06T05:19:32.284Z,6.97
2019-03-06T05:24:33.913Z,5.90
2019-03-06T05:29:35.465Z,6.20
2019-03-06T05:34:37.012Z,6.37
2019-03-06T05:39:38.688Z,6.87
2019-03-06T05:44:40.256Z,6.20
2019-03-06T05:49:41.841Z,6.50
2019-03-06T05:54:43.395Z,9.17
2019-03-06T05:59:44.951Z,7.20
2019-03-06T06:04:46.497Z,6.97
2019-03-06T06:09:48.043Z,6.37
2019-03-06T06:14:49.617Z,6.07
2019-03-06T06:19:51.414Z,6.80
2019-03-06T06:24:52.973Z,5.97
2019-03-06T06:29:54.523Z,6.17
2019-03-06T06:34:56.199Z,6.57
2019-03-06T06:39:57.735Z,6.80
2019-03-06T06:44:59.385Z,6.00
2019-03-06T06:50:00.951Z,6.27
2019-03-06T06:55:24.701Z,6.27
2019-03-06T07:01:00.607Z,6.50
2019-03-06T07:06:20.664Z,6.37
2019-03-06T07:11:30.267Z,6.43
2019-03-06T07:16:45.040Z,16.83
2019-03-06T07:21:55.774Z,6.73
2019-03-06T07:27:10.316Z,5.43
2019-03-06T07:32:30.100Z,4.60
2019-03-06T07:37:46.117Z,4.20
2019-03-06T07:43:12.992Z,4.47
2019-03-06T07:48:33.292Z,5.00
2019-03-06T07:53:59.027Z,4.30
2019-03-06T07:59:00.869Z,4.57
2019-03-06T08:04:10.874Z,4.20
2019-03-06T08:09:17.199Z,4.23
2019-03-06T08:14:56.606Z,4.30
2019-03-06T08:20:15.002Z,4.20
2019-03-06T08:25:23.048Z,4.30
2019-03-06T08:30:26.672Z,3.90
2019-03-06T08:35:28.421Z,3.97
2019-03-06T08:40:30.256Z,4.13
2019-03-06T08:45:43.208Z,3.60
2019-03-06T08:51:10.709Z,5.33
2019-03-06T08:56:18.841Z,3.80
2019-03-06T09:02:00.469Z,3.60
2019-03-06T09:07:09.721Z,3.50
2019-03-06T09:12:25.842Z,3.90
2019-03-06T09:17:42.160Z,3.83
2019-03-06T09:23:02.143Z,3.77
2019-03-06T09:28:23.534Z,3.90
2019-03-06T09:33:41.876Z,3.30
2019-03-06T09:39:06.208Z,3.23
2019-03-06T09:44:36.518Z,3.60
2019-03-06T09:50:00.894Z,3.00
2019-03-06T09:55:37.527Z,3.20
2019-03-06T10:00:53.458Z,3.23
2019-03-06T10:06:02.387Z,3.60
2019-03-06T10:11:19.407Z,3.20
2019-03-06T10:16:31.038Z,3.37
2019-03-06T10:21:32.642Z,3.57
2019-03-06T10:26:34.340Z,2.90
2019-03-06T10:31:36.090Z,3.53
2019-03-06T10:36:37.844Z,3.00
2019-03-06T10:41:39.488Z,3.00
2019-03-06T10:46:41.272Z,2.90
2019-03-06T10:51:43.220Z,3.03
2019-03-06T10:56:44.972Z,2.60
2019-03-06T11:01:46.673Z,2.93
2019-03-06T11:06:48.375Z,2.80
2019-03-06T11:11:50.143Z,2.73
2019-03-06T11:16:51.847Z,2.67
2019-03-06T11:21:53.965Z,2.60
2019-03-06T11:26:55.911Z,2.13
2019-03-06T11:31:57.636Z,2.20
2019-03-06T11:36:59.496Z,2.97
2019-03-06T11:42:01.198Z,2.97
2019-03-06T11:47:02.951Z,2.23
2019-03-06T11:52:06.576Z,2.60
2019-03-06T11:57:08.480Z,2.15
2019-03-06T12:02:10.655Z,2.17
2019-03-06T12:07:12.621Z,1.95
2019-03-06T12:12:14.237Z,2.00
2019-03-06T12:17:15.944Z,2.10
2019-03-06T12:22:17.576Z,2.00
2019-03-06T12:27:19.242Z,1.57
2019-03-06T12:32:20.901Z,1.50
2019-03-06T12:37:22.480Z,1.60
2019-03-06T12:42:24.073Z,1.80
2019-03-06T12:47:25.942Z,1.60
2019-03-06T12:52:27.723Z,1.40
2019-03-06T12:57:29.500Z,1.45
2019-03-06T13:02:31.210Z,1.60
2019-03-06T13:07:32.965Z,1.30
2019-03-06T13:12:38.236Z,1.70
2019-03-06T13:17:39.934Z,1.50
2019-03-06T13:22:42.164Z,1.57
2019-03-06T13:27:43.873Z,1.35
2019-03-06T13:32:59.701Z,1.12
2019-03-06T13:38:01.374Z,1.47
2019-03-06T13:43:03.133Z,1.30
2019-03-06T13:48:04.887Z,1.07
2019-03-06T13:53:06.537Z,1.17
2019-03-06T13:58:08.437Z,1.00
2019-03-06T14:03:10.283Z,1.00
2019-03-06T14:08:12.009Z,0.90
2019-03-06T14:13:13.696Z,0.90
2019-03-06T14:18:15.536Z,1.22
2019-03-06T14:23:17.221Z,1.00
2019-03-06T14:28:18.894Z,1.00
2019-03-06T14:33:21.116Z,1.30
2019-03-06T14:38:22.903Z,2.27
2019-03-06T14:43:24.660Z,0.90
2019-03-06T14:48:26.644Z,2.90
2019-03-06T14:53:28.370Z,0.68
2019-03-06T14:58:30.198Z,0.93
2019-03-06T15:03:32.228Z,0.80
2019-03-06T15:08:33.826Z,1.20
2019-03-06T15:13:35.528Z,1.00
2019-03-06T15:18:37.094Z,0.90
2019-03-06T15:23:38.884Z,2.17
2019-03-06T15:28:40.740Z,0.90
2019-03-06T15:33:46.425Z,0.90
2019-03-06T15:38:48.149Z,0.73
2019-03-06T15:43:49.861Z,0.95
2019-03-06T15:48:51.602Z,1.10
2019-03-06T15:53:54.769Z,1.10
2019-03-06T15:58:56.433Z,1.30
2019-03-06T16:03:58.022Z,1.03
2019-03-06T16:08:59.719Z,1.27
2019-03-06T16:14:01.432Z,1.33
2019-03-06T16:19:03.933Z,1.20
2019-03-06T16:24:05.484Z,1.10
2019-03-06T16:29:07.149Z,1.30
2019-03-06T16:34:08.829Z,1.67
2019-03-06T16:39:10.495Z,1.50
2019-03-06T16:44:12.561Z,1.30
2019-03-06T16:49:14.233Z,1.97
2019-03-06T16:54:16.164Z,1.40
2019-03-06T16:59:17.843Z,4.47
2019-03-06T17:04:19.517Z,2.73
2019-03-06T17:09:21.594Z,1.60
2019-03-06T17:14:23.682Z,1.60
2019-03-06T17:19:25.353Z,1.33
2019-03-06T17:24:27.026Z,1.37
2019-03-06T17:29:28.725Z,1.20
2019-03-06T17:34:30.702Z,1.33
2019-03-06T17:39:32.505Z,1.33
2019-03-06T17:44:34.212Z,1.40
2019-03-06T17:49:35.855Z,1.20
2019-03-06T17:54:37.546Z,1.50
2019-03-06T17:59:39.144Z,1.30
2019-03-06T18:04:40.741Z,2.53
2019-03-06T18:09:42.355Z,1.67
2019-03-06T18:14:44.191Z,1.60
2019-03-06T18:19:45.878Z,1.60
2019-03-06T18:24:47.438Z,1.37
2019-03-06T18:29:49.017Z,3.37
2019-03-06T18:34:50.635Z,1.87
2019-03-06T18:39:52.521Z,1.57
2019-03-06T18:44:54.180Z,2.00
2019-03-06T18:49:55.745Z,1.30
2019-03-06T18:54:57.357Z,1.70
2019-03-06T18:59:58.938Z,1.53
2019-03-06T19:05:00.537Z,1.57
2019-03-06T19:10:02.491Z,2.43
2019-03-06T19:15:04.508Z,1.90
2019-03-06T19:20:06.553Z,3.23
2019-03-06T19:25:08.914Z,1.60
2019-03-06T19:30:15.145Z,1.50
2019-03-06T19:35:17.398Z,1.60
2019-03-06T19:40:19.050Z,2.00
2019-03-06T19:45:20.855Z,2.40
2019-03-06T19:50:22.520Z,2.97
2019-03-06T19:55:24.484Z,2.57
2019-03-06T20:00:26.582Z,2.10
2019-03-06T20:05:30.442Z,2.33
2019-03-06T20:10:32.425Z,1.90
2019-03-06T20:15:34.135Z,1.60
2019-03-06T20:20:35.834Z,1.97
2019-03-06T20:25:37.537Z,1.90
2019-03-06T20:30:39.088Z,1.63
2019-03-06T20:35:40.745Z,1.67
2019-03-06T20:40:42.414Z,1.63
2019-03-06T20:45:44.244Z,1.70
2019-03-06T20:50:45.780Z,1.90
2019-03-06T20:55:47.351Z,1.90
2019-03-06T21:00:49.005Z,2.33
2019-03-06T21:05:50.690Z,2.17
2019-03-06T21:10:52.515Z,1.30
2019-03-06T21:15:54.211Z,1.50
2019-03-06T21:20:55.767Z,1.50
2019-03-06T21:25:57.360Z,1.43
2019-03-06T21:30:58.905Z,1.60
2019-03-06T21:36:00.453Z,1.90
2019-03-06T21:41:02.129Z,1.93
2019-03-06T21:46:03.802Z,1.60
2019-03-06T21:51:05.660Z,1.87
2019-03-06T21:56:07.327Z,1.50
2019-03-06T22:01:08.892Z,1.77
2019-03-06T22:06:10.451Z,1.70
2019-03-06T22:11:12.035Z,1.70
2019-03-06T22:16:13.577Z,1.57
2019-03-06T22:21:15.129Z,1.90
2019-03-06T22:26:16.693Z,2.07
2019-03-06T22:31:18.475Z,1.77
2019-03-06T22:36:20.115Z,1.50
2019-03-06T22:41:21.658Z,1.50
2019-03-06T22:46:23.234Z,1.47
2019-03-06T22:51:25.523Z,1.63
2019-03-06T22:56:27.205Z,1.70
2019-03-06T23:01:34.505Z,1.67
2019-03-06T23:06:36.184Z,1.70
2019-03-06T23:11:38.147Z,1.53
2019-03-06T23:16:39.814Z,1.67
2019-03-06T23:21:41.481Z,1.40
2019-03-06T23:26:43.388Z,1.50
2019-03-06T23:31:45.186Z,1.60
2019-03-06T23:36:46.857Z,1.40
2019-03-06T23:41:48.470Z,1.13
2019-03-06T23:46:50.382Z,1.20
2019-03-06T23:51:59.242Z,1.10
2019-03-06T23:57:00.888Z,1.60
